Okefenokee, Georgia
Current Conditions -  °F | °C
As of 7:15 PM on Friday 21 Nov 2014 (Local Time) from KAYS Reporting Station
Clear Clear  
Wind Chill: 59°   Ceiling: Unl
Heat Index: 59°   Visibility: 10mi
Dew Point: 39°   Wind: 8mph
Humidity: 48%   Direction: 110°ESE
Pressure: 30.37"   Gusts: NA
Location:  31.1455°N, 82.3853°W
Report Text: KAYS 220015Z AUTO 11007KT 10SM CLR 15/04 A3037 RMK AO2 T01510041
Loading
Personal Weather Stations






























Interactive Weather Map New forecast layout! Learn more

10-Day Weather Forecast

Advertisements
Track Severe Weather on mobile